CheckWX is a tool to help pilots better visualize weather data.  It is not intended as a substitute for an official pre-flight weather briefing.

15:23:44 UTC

KOWA METAR
Owatonna Degner Regional Airport
Owatonna, Minnesota, USA
Current

12 mins ago

KOWA 261512Z AUTO 01004KT 10SM CLR 17/09 A3012 RMK AO2
Observed
May-26 @ 15:12 UTC
Wind
  • 010° at 4 KTS
Visibility
10 SM
Flight Rules
VFR
Cloud Levels
  • Clear skies
Temperature
17°C / 63°F
Dewpoint
C / 48°F
Humidity
59%
Altimeter
30.12" Hg
Pressure
1020.02 hPa
Previous

32 mins ago

KOWA 261452Z AUTO 25003KT 10SM CLR 16/08 A3012 RMK AO2
Observed
May-26 @ 14:52 UTC
Wind
  • 250° at 3 KTS
Visibility
10 SM
Flight Rules
VFR
Cloud Levels
  • Clear skies
Temperature
16°C / 61°F
Dewpoint
C / 46°F
Humidity
59%
Altimeter
30.12" Hg
Pressure
1020.02 hPa
Previous

1 hour ago

KOWA 261419Z AUTO 00000KT 10SM CLR 16/09 A3010 RMK AO2 LTG DSNT W
Observed
May-26 @ 14:19 UTC
Visibility
10 SM
Flight Rules
VFR
Cloud Levels
  • Clear skies
Temperature
16°C / 61°F
Dewpoint
C / 48°F
Humidity
63%
Altimeter
30.1" Hg
Pressure
1019.32 hPa